Time;durP1;ratioP1;P1;durP2;ratioP2;P2;SDS_P1;SDS_P2;PMS_P1;PMS_P2;Temp;Humidity;BMP_temperature;BMP_pressure;BME280_temperature;BME280_humidity;BME280_pressure;Samples;Min_cycle;Max_cycle;Signal;HPM_P1;HPM_P2
2024/04/18 00:00:35;;;;;;;;;;;7.00;99.90;;;;;;5317618;26;19966;-79
2024/04/18 00:03:04;;;;;;;;;;;7.00;99.90;;;;;;5324574;26;19937;-79
2024/04/18 00:05:30;;;;;;;;;;;7.00;99.90;;;;;;5316611;26;19937;-80
2024/04/18 00:07:55;;;;;;;;;;;7.00;99.90;;;;;;5259595;26;19930;-79
2024/04/18 00:10:21;;;;;;;;;;;7.00;99.90;;;;;;5316412;26;19938;-79
2024/04/18 00:12:47;;;;;;;;;;;7.00;99.90;;;;;;5317158;26;19934;-78
2024/04/18 00:15:15;;;;;;;;;;;7.00;99.90;;;;;;5321708;26;19938;-79
2024/04/18 00:17:41;;;;;;;;;;;7.00;99.90;;;;;;5317666;26;19942;-78
2024/04/18 00:20:08;;;;;;;;;;;7.00;99.90;;;;;;5314801;26;19941;-79
2024/04/18 00:22:41;;;;;;;;;;;7.10;99.90;;;;;;5269379;26;19929;-78
2024/04/18 00:25:10;;;;;;;;;;;7.00;99.90;;;;;;5342743;26;20608;-78
2024/04/18 00:27:35;;;;;;;;;;;7.00;99.90;;;;;;5327166;26;19997;-79
2024/04/18 00:30:01;;;;;;;;;;;6.90;99.90;;;;;;5295918;26;19938;-78
2024/04/18 00:32:28;;;;;;;;;;;6.90;99.90;;;;;;5288277;26;20258;-79
2024/04/18 00:34:57;;;;;;;;;;;6.90;99.90;;;;;;5315453;26;19945;-79
2024/04/18 00:37:23;;;;;;;;;;;6.90;99.90;;;;;;5315278;26;19930;-79
2024/04/18 00:40:06;;;;;;;;;;;6.90;99.90;;;;;;5302009;26;19962;-80
2024/04/18 00:42:32;;;;;;;;;;;6.90;99.90;;;;;;5290961;26;19930;-79
2024/04/18 00:45:00;;;;;;;;;;;6.90;99.90;;;;;;5315570;26;19930;-79
2024/04/18 00:47:29;;;;;;;;;;;6.90;99.90;;;;;;5286487;26;20346;-80
2024/04/18 00:49:54;;;;;;;;;;;6.90;99.90;;;;;;5315518;26;20289;-79
2024/04/18 00:52:21;;;;;;;;;;;6.90;99.90;;;;;;5304066;26;19938;-79
2024/04/18 00:54:47;;;;;;;;;;;6.90;99.90;;;;;;5319367;26;20290;-79
2024/04/18 00:57:13;;;;;;;;;;;7.10;99.90;;;;;;5353751;26;19930;-79
2024/04/18 00:59:41;;;;;;;;;;;6.80;99.90;;;;;;5310272;26;19992;-79
2024/04/18 01:02:07;;;;;;;;;;;7.00;99.90;;;;;;5316263;26;19930;-79
2024/04/18 01:04:33;;;;;;;;;;;6.90;99.90;;;;;;5276120;26;19937;-79
2024/04/18 01:07:01;;;;;;;;;;;6.80;99.90;;;;;;5302724;26;19931;-79
2024/04/18 01:09:29;;;;;;;;;;;6.80;99.90;;;;;;5318871;26;20354;-79
2024/04/18 01:11:57;;;;;;;;;;;6.80;99.90;;;;;;5301255;26;19938;-80
2024/04/18 01:14:23;;;;;;;;;;;6.80;99.90;;;;;;5333357;26;19937;-79
2024/04/18 01:16:49;;;;;;;;;;;6.80;99.90;;;;;;5319074;26;19930;-79
2024/04/18 01:19:24;;;;;;;;;;;6.80;99.90;;;;;;5290675;26;20351;-79
2024/04/18 01:21:49;;;;;;;;;;;6.80;99.90;;;;;;5347314;26;19930;-79
2024/04/18 01:24:15;;;;;;;;;;;6.80;99.90;;;;;;5294833;26;20005;-79
2024/04/18 01:26:41;;;;;;;;;;;6.80;99.90;;;;;;5319110;26;19997;-79
2024/04/18 01:29:07;;;;;;;;;;;6.80;99.90;;;;;;5317126;26;20033;-80
2024/04/18 01:31:33;;;;;;;;;;;6.80;99.90;;;;;;5348521;26;19930;-79
2024/04/18 01:34:06;;;;;;;;;;;6.80;99.90;;;;;;5317833;26;19930;-79
2024/04/18 01:36:34;;;;;;;;;;;6.80;99.90;;;;;;5264755;26;20236;-79
2024/04/18 01:38:59;;;;;;;;;;;6.80;99.90;;;;;;5310572;26;20365;-79
2024/04/18 01:41:25;;;;;;;;;;;6.70;99.90;;;;;;5347094;26;19931;-79
2024/04/18 01:43:51;;;;;;;;;;;6.70;99.90;;;;;;5290088;26;19946;-79
2024/04/18 01:46:19;;;;;;;;;;;6.70;99.90;;;;;;5262164;26;20370;-79
2024/04/18 01:48:45;;;;;;;;;;;6.70;99.90;;;;;;5299288;26;19937;-79
2024/04/18 01:51:13;;;;;;;;;;;6.70;99.90;;;;;;5319199;26;20554;-79
2024/04/18 01:53:39;;;;;;;;;;;6.40;99.90;;;;;;5318056;26;19930;-79
2024/04/18 01:56:05;;;;;;;;;;;6.60;99.90;;;;;;5268679;26;19930;-79
2024/04/18 01:58:31;;;;;;;;;;;6.60;99.90;;;;;;5303001;26;20586;-79
2024/04/18 02:00:57;;;;;;;;;;;6.60;99.90;;;;;;5294867;26;19997;-79
2024/04/18 02:03:25;;;;;;;;;;;6.60;99.90;;;;;;5324101;26;19938;-79
2024/04/18 02:05:51;;;;;;;;;;;6.50;99.90;;;;;;5265504;26;19930;-79
2024/04/18 02:08:17;;;;;;;;;;;6.20;99.90;;;;;;5289922;26;20360;-79
2024/04/18 02:10:43;;;;;;;;;;;6.50;99.90;;;;;;5282221;26;19941;-78
2024/04/18 02:13:09;;;;;;;;;;;6.60;99.90;;;;;;5342795;26;19995;-78
2024/04/18 02:15:35;;;;;;;;;;;6.60;99.90;;;;;;5346696;26;19946;-78
2024/04/18 02:18:01;;;;;;;;;;;6.50;99.90;;;;;;5278899;26;19962;-78
2024/04/18 02:20:27;;;;;;;;;;;6.50;99.90;;;;;;5290105;26;20262;-78
2024/04/18 02:22:55;;;;;;;;;;;6.60;99.90;;;;;;5294204;26;19929;-79
2024/04/18 02:25:25;;;;;;;;;;;6.60;99.90;;;;;;5342039;26;19930;-78
2024/04/18 02:27:59;;;;;;;;;;;6.60;99.90;;;;;;5318469;26;20283;-78
2024/04/18 02:30:28;;;;;;;;;;;6.60;99.90;;;;;;5268721;26;19977;-78
2024/04/18 02:32:54;;;;;;;;;;;6.60;99.90;;;;;;5294439;26;19936;-78
2024/04/18 02:35:20;;;;;;;;;;;6.60;99.90;;;;;;5295876;26;19930;-78
2024/04/18 02:37:46;;;;;;;;;;;6.60;99.90;;;;;;5336540;26;19942;-78
2024/04/18 02:40:12;;;;;;;;;;;6.60;99.90;;;;;;5288004;26;19930;-78
2024/04/18 02:42:38;;;;;;;;;;;6.60;99.90;;;;;;5301837;26;19975;-78
2024/04/18 02:45:04;;;;;;;;;;;6.60;99.90;;;;;;5345179;26;19940;-78
2024/04/18 02:47:32;;;;;;;;;;;6.70;99.90;;;;;;5302012;26;19937;-78
2024/04/18 02:50:00;;;;;;;;;;;6.70;99.90;;;;;;5322430;26;19969;-78
2024/04/18 02:52:28;;;;;;;;;;;6.60;99.90;;;;;;5339930;26;19930;-78
2024/04/18 02:54:57;;;;;;;;;;;6.70;99.90;;;;;;5285183;26;20271;-78
2024/04/18 02:57:23;;;;;;;;;;;6.70;99.90;;;;;;5317589;26;19930;-78
2024/04/18 02:59:50;;;;;;;;;;;6.70;99.90;;;;;;5315225;26;19930;-78
2024/04/18 03:02:18;;;;;;;;;;;6.60;99.90;;;;;;5289438;26;19934;-77
2024/04/18 03:04:56;;;;;;;;;;;6.70;99.90;;;;;;5320035;26;19938;-77
2024/04/18 03:07:22;;;;;;;;;;;6.70;99.90;;;;;;5345724;26;20000;-78
2024/04/18 03:09:59;;;;;;;;;;;6.60;99.90;;;;;;5293886;26;19938;-78
2024/04/18 03:12:25;;;;;;;;;;;6.70;99.90;;;;;;5329541;26;19930;-78
2024/04/18 03:14:53;;;;;;;;;;;6.70;99.90;;;;;;5316054;26;19997;-78
2024/04/18 03:17:24;;;;;;;;;;;6.70;99.90;;;;;;5285220;26;19954;-77
2024/04/18 03:19:52;;;;;;;;;;;6.60;99.90;;;;;;5298480;26;20282;-77
2024/04/18 03:22:21;;;;;;;;;;;6.50;99.90;;;;;;5317509;26;19941;-77
2024/04/18 03:24:46;;;;;;;;;;;6.60;99.90;;;;;;5316687;26;19930;-77
2024/04/18 03:27:17;;;;;;;;;;;6.60;99.90;;;;;;5295242;26;20274;-78
2024/04/18 03:29:45;;;;;;;;;;;6.60;99.90;;;;;;5278155;26;19930;-78
2024/04/18 03:32:14;;;;;;;;;;;6.60;99.90;;;;;;5319662;26;19941;-78
2024/04/18 03:34:43;;;;;;;;;;;6.60;99.90;;;;;;5284356;26;19957;-78
2024/04/18 03:37:12;;;;;;;;;;;6.60;99.90;;;;;;5327020;26;19991;-78
2024/04/18 03:39:38;;;;;;;;;;;6.60;99.90;;;;;;5345154;26;20254;-78
2024/04/18 03:42:04;;;;;;;;;;;6.60;99.90;;;;;;5340800;26;19995;-78
2024/04/18 03:44:31;;;;;;;;;;;7.00;99.90;;;;;;5327803;26;20330;-78
2024/04/18 03:46:56;;;;;;;;;;;6.60;99.90;;;;;;5294497;26;19996;-78
2024/04/18 03:49:25;;;;;;;;;;;6.60;99.90;;;;;;5271287;26;19938;-78
2024/04/18 03:51:51;;;;;;;;;;;6.60;99.90;;;;;;5350289;26;19945;-78
2024/04/18 03:54:20;;;;;;;;;;;6.60;99.90;;;;;;5316237;26;20010;-78
2024/04/18 03:56:46;;;;;;;;;;;6.60;99.90;;;;;;5317087;26;19936;-78
2024/04/18 03:59:17;;;;;;;;;;;6.60;99.90;;;;;;5316316;26;19957;-78
2024/04/18 04:01:45;;;;;;;;;;;6.40;99.90;;;;;;5293156;26;20009;-78
2024/04/18 04:04:14;;;;;;;;;;;6.20;99.90;;;;;;5345149;26;19934;-78
2024/04/18 04:06:47;;;;;;;;;;;6.40;99.90;;;;;;5346700;26;19937;-78
2024/04/18 04:09:16;;;;;;;;;;;6.60;99.90;;;;;;5346847;26;19939;-79
2024/04/18 04:11:41;;;;;;;;;;;6.60;99.90;;;;;;5298518;26;19934;-78
2024/04/18 04:14:19;;;;;;;;;;;6.50;99.90;;;;;;5302611;26;19937;-78
2024/04/18 04:16:45;;;;;;;;;;;6.50;99.90;;;;;;5308333;26;19929;-78
2024/04/18 04:19:13;;;;;;;;;;;6.40;99.90;;;;;;5329461;26;19946;-77
2024/04/18 04:21:39;;;;;;;;;;;6.60;99.90;;;;;;5260645;26;19930;-77
2024/04/18 04:24:05;;;;;;;;;;;6.40;99.90;;;;;;5316236;26;19930;-77
2024/04/18 04:26:33;;;;;;;;;;;6.30;99.90;;;;;;5344391;26;20361;-77
2024/04/18 04:29:00;;;;;;;;;;;6.30;99.90;;;;;;5262988;26;19937;-79
2024/04/18 04:31:28;;;;;;;;;;;6.30;99.90;;;;;;5308426;26;19930;-77
2024/04/18 04:33:55;;;;;;;;;;;6.30;99.90;;;;;;5357393;26;19996;-77
2024/04/18 04:36:24;;;;;;;;;;;5.90;99.90;;;;;;5320787;26;20004;-78
2024/04/18 04:38:52;;;;;;;;;;;6.20;99.90;;;;;;5275318;26;19937;-78
2024/04/18 04:41:18;;;;;;;;;;;6.30;99.90;;;;;;5299901;26;19941;-78
2024/04/18 04:43:52;;;;;;;;;;;6.30;99.90;;;;;;5264480;26;19931;-78
2024/04/18 04:46:20;;;;;;;;;;;6.40;99.90;;;;;;5319590;26;19930;-79
2024/04/18 04:48:46;;;;;;;;;;;6.30;99.90;;;;;;5318990;26;20057;-78
2024/04/18 04:51:12;;;;;;;;;;;6.30;99.90;;;;;;5310897;26;19930;-79
2024/04/18 04:53:37;;;;;;;;;;;6.30;99.90;;;;;;5319145;26;19936;-78
2024/04/18 04:56:03;;;;;;;;;;;6.30;99.90;;;;;;5338826;26;19937;-79
2024/04/18 04:58:32;;;;;;;;;;;6.30;99.90;;;;;;5330230;26;19930;-79
2024/04/18 05:01:00;;;;;;;;;;;6.40;99.90;;;;;;5314498;26;19930;-79
2024/04/18 05:03:26;;;;;;;;;;;6.40;99.90;;;;;;5345188;26;19930;-79
2024/04/18 05:06:00;;;;;;;;;;;6.80;99.90;;;;;;5315190;26;19930;-79
2024/04/18 05:08:31;;;;;;;;;;;6.30;99.90;;;;;;5319047;26;19940;-79
2024/04/18 05:11:01;;;;;;;;;;;6.40;99.90;;;;;;5319368;26;19958;-79
2024/04/18 05:13:29;;;;;;;;;;;6.40;99.90;;;;;;5341042;26;19946;-79
2024/04/18 05:15:58;;;;;;;;;;;6.40;99.90;;;;;;5340099;26;19930;-79
2024/04/18 05:18:24;;;;;;;;;;;6.40;99.90;;;;;;5319315;26;19938;-80
2024/04/18 05:20:49;;;;;;;;;;;6.50;99.90;;;;;;5319716;26;20350;-79
2024/04/18 05:23:20;;;;;;;;;;;6.50;99.90;;;;;;5353551;26;19933;-79
2024/04/18 05:25:48;;;;;;;;;;;6.50;99.90;;;;;;5290112;26;19937;-79
2024/04/18 05:28:21;;;;;;;;;;;6.40;99.90;;;;;;5338552;26;19929;-78
2024/04/18 05:31:01;;;;;;;;;;;6.70;99.90;;;;;;5324507;26;19937;-78
2024/04/18 05:33:27;;;;;;;;;;;6.50;99.90;;;;;;5326029;26;19930;-78
2024/04/18 05:35:53;;;;;;;;;;;6.50;99.90;;;;;;5325044;26;19996;-78
2024/04/18 05:38:19;;;;;;;;;;;6.60;99.90;;;;;;5313977;26;19942;-78
2024/04/18 05:40:48;;;;;;;;;;;6.40;99.90;;;;;;5363018;26;20006;-79
2024/04/18 05:43:14;;;;;;;;;;;6.50;99.90;;;;;;5314289;26;19930;-78
2024/04/18 05:45:42;;;;;;;;;;;6.60;99.90;;;;;;5323206;26;20378;-78
2024/04/18 05:48:08;;;;;;;;;;;6.50;99.90;;;;;;5346174;26;19942;-78
2024/04/18 05:50:33;;;;;;;;;;;6.70;99.90;;;;;;5346228;26;19999;-78
2024/04/18 05:52:59;;;;;;;;;;;6.70;99.90;;;;;;5318041;26;19938;-78
2024/04/18 05:55:25;;;;;;;;;;;6.70;99.90;;;;;;5301844;26;20329;-78
2024/04/18 05:57:51;;;;;;;;;;;6.80;99.90;;;;;;5303545;26;19957;-79
2024/04/18 06:00:17;;;;;;;;;;;6.80;99.90;;;;;;5313756;26;19942;-78
2024/04/18 06:02:43;;;;;;;;;;;6.80;99.90;;;;;;5346787;26;20295;-79
2024/04/18 06:05:09;;;;;;;;;;;6.90;99.90;;;;;;5289300;26;20374;-79
2024/04/18 06:07:35;;;;;;;;;;;6.80;99.90;;;;;;5289411;26;19958;-79
2024/04/18 06:10:00;;;;;;;;;;;6.80;99.90;;;;;;5289531;26;19938;-80
2024/04/18 06:12:26;;;;;;;;;;;6.90;99.90;;;;;;5289681;26;19942;-80
2024/04/18 06:14:52;;;;;;;;;;;6.90;99.90;;;;;;5295449;26;19996;-80
2024/04/18 06:17:17;;;;;;;;;;;7.00;99.90;;;;;;5289280;26;19962;-80
2024/04/18 06:19:47;;;;;;;;;;;7.00;99.90;;;;;;5289681;26;19930;-80
2024/04/18 06:22:13;;;;;;;;;;;7.10;99.90;;;;;;5331283;26;20414;-80
2024/04/18 06:24:39;;;;;;;;;;;7.10;99.90;;;;;;5262064;26;19962;-80
2024/04/18 06:27:04;;;;;;;;;;;7.10;99.90;;;;;;5290095;26;19933;-80
2024/04/18 06:29:30;;;;;;;;;;;7.10;99.90;;;;;;5289833;26;19941;-80
2024/04/18 06:31:56;;;;;;;;;;;7.10;99.90;;;;;;5318180;26;19938;-80
2024/04/18 06:34:23;;;;;;;;;;;7.10;99.90;;;;;;5318055;26;19938;-80
2024/04/18 06:36:48;;;;;;;;;;;7.20;99.90;;;;;;5289424;26;19930;-80
2024/04/18 06:39:14;;;;;;;;;;;7.20;99.90;;;;;;5317216;26;19936;-80
2024/04/18 06:41:40;;;;;;;;;;;7.10;99.90;;;;;;5310193;26;19930;-80
2024/04/18 06:44:08;;;;;;;;;;;7.10;99.90;;;;;;5317255;26;19930;-80
2024/04/18 06:46:34;;;;;;;;;;;7.10;99.90;;;;;;5294662;26;19930;-80
2024/04/18 06:49:00;;;;;;;;;;;7.20;99.90;;;;;;5346214;26;20002;-80
2024/04/18 06:51:26;;;;;;;;;;;7.20;99.90;;;;;;5317488;26;19969;-80
2024/04/18 06:53:51;;;;;;;;;;;7.20;99.90;;;;;;5289458;26;19937;-80
2024/04/18 06:56:17;;;;;;;;;;;7.20;99.90;;;;;;5295270;26;20287;-80
2024/04/18 06:58:46;;;;;;;;;;;7.30;99.90;;;;;;5288707;26;22108;-80
2024/04/18 07:01:12;;;;;;;;;;;7.30;99.90;;;;;;5301047;26;20318;-80
2024/04/18 07:03:37;;;;;;;;;;;7.40;99.90;;;;;;5287321;26;19934;-80
2024/04/18 07:06:03;;;;;;;;;;;7.40;99.90;;;;;;5318663;26;19930;-80
2024/04/18 07:08:31;;;;;;;;;;;7.50;99.90;;;;;;5300703;26;19934;-80
2024/04/18 07:10:58;;;;;;;;;;;7.50;99.90;;;;;;5289660;26;19953;-80
2024/04/18 07:13:24;;;;;;;;;;;7.60;99.90;;;;;;5261256;26;19929;-80
2024/04/18 07:15:50;;;;;;;;;;;7.60;99.90;;;;;;5317641;26;19937;-79
2024/04/18 07:18:16;;;;;;;;;;;7.70;99.90;;;;;;5288866;26;19930;-80
2024/04/18 07:20:41;;;;;;;;;;;7.70;99.90;;;;;;5261244;26;19950;-79
2024/04/18 07:23:07;;;;;;;;;;;7.70;99.90;;;;;;5318173;26;19942;-80
2024/04/18 07:25:35;;;;;;;;;;;7.30;99.90;;;;;;5289516;26;19938;-80
2024/04/18 07:28:03;;;;;;;;;;;7.70;99.90;;;;;;5306819;26;19942;-80
2024/04/18 07:30:29;;;;;;;;;;;7.30;99.90;;;;;;5288880;26;19930;-80
2024/04/18 07:32:55;;;;;;;;;;;7.70;99.90;;;;;;5344036;26;20347;-79
2024/04/18 07:35:23;;;;;;;;;;;7.70;99.90;;;;;;5316890;26;19937;-79
2024/04/18 07:37:49;;;;;;;;;;;7.60;99.90;;;;;;5338255;26;20312;-80
2024/04/18 07:40:22;;;;;;;;;;;7.80;99.90;;;;;;5352202;26;19933;-79
2024/04/18 07:42:53;;;;;;;;;;;7.70;99.90;;;;;;5351881;26;19934;-79
2024/04/18 07:45:20;;;;;;;;;;;7.90;99.90;;;;;;5321523;26;19929;-80
2024/04/18 07:47:45;;;;;;;;;;;7.90;99.90;;;;;;5317323;26;19930;-79
2024/04/18 07:50:11;;;;;;;;;;;8.00;99.90;;;;;;5260806;26;19930;-79
2024/04/18 07:52:39;;;;;;;;;;;8.10;99.90;;;;;;5260740;26;19930;-79
2024/04/18 07:55:08;;;;;;;;;;;8.10;99.90;;;;;;5291752;26;19930;-79
2024/04/18 07:57:33;;;;;;;;;;;8.20;99.90;;;;;;5288036;26;20000;-80
2024/04/18 07:59:59;;;;;;;;;;;8.20;99.90;;;;;;5289220;26;19934;-79
2024/04/18 08:02:25;;;;;;;;;;;8.30;99.90;;;;;;5286837;26;19930;-79
2024/04/18 08:04:54;;;;;;;;;;;8.30;99.90;;;;;;5316839;26;19929;-80
2024/04/18 08:07:22;;;;;;;;;;;8.30;99.90;;;;;;5289794;26;19938;-80
2024/04/18 08:09:48;;;;;;;;;;;8.30;99.90;;;;;;5269024;26;19937;-79
2024/04/18 08:12:16;;;;;;;;;;;8.30;99.90;;;;;;5345592;26;19937;-79
2024/04/18 08:14:42;;;;;;;;;;;8.40;99.90;;;;;;5261127;26;20433;-79
2024/04/18 08:17:07;;;;;;;;;;;8.50;99.90;;;;;;5299902;26;20408;-80
2024/04/18 08:19:33;;;;;;;;;;;8.50;99.90;;;;;;5303520;26;19936;-80
2024/04/18 08:22:02;;;;;;;;;;;8.60;99.90;;;;;;5260464;26;19930;-80
2024/04/18 08:24:33;;;;;;;;;;;8.60;99.90;;;;;;5288503;26;19930;-80
2024/04/18 08:26:59;;;;;;;;;;;8.90;99.90;;;;;;5331449;26;19941;-80
2024/04/18 08:29:27;;;;;;;;;;;9.00;99.90;;;;;;5294089;26;20059;-79
2024/04/18 08:31:53;;;;;;;;;;;9.00;99.90;;;;;;5344615;26;19930;-79
2024/04/18 08:34:19;;;;;;;;;;;8.90;99.90;;;;;;5334286;26;20065;-79
2024/04/18 08:36:45;;;;;;;;;;;9.00;99.90;;;;;;5325460;26;19945;-79
2024/04/18 08:39:11;;;;;;;;;;;9.00;99.90;;;;;;5259961;26;20350;-79
2024/04/18 08:41:37;;;;;;;;;;;8.90;99.90;;;;;;5300787;26;19996;-78
2024/04/18 08:44:02;;;;;;;;;;;8.90;99.90;;;;;;5340334;26;19937;-78
2024/04/18 08:46:36;;;;;;;;;;;8.80;99.90;;;;;;5321607;26;20416;-80
2024/04/18 08:49:02;;;;;;;;;;;8.80;99.90;;;;;;5323191;26;20462;-78
2024/04/18 08:51:28;;;;;;;;;;;8.80;99.90;;;;;;5315509;26;19938;-77
2024/04/18 08:53:54;;;;;;;;;;;8.80;99.90;;;;;;5315935;26;19940;-78
2024/04/18 08:56:24;;;;;;;;;;;8.90;99.90;;;;;;5289274;26;20263;-80
2024/04/18 08:58:50;;;;;;;;;;;8.90;99.90;;;;;;5263055;26;19930;-78
2024/04/18 09:01:15;;;;;;;;;;;8.90;99.90;;;;;;5287082;26;19937;-78
2024/04/18 09:03:41;;;;;;;;;;;8.90;99.90;;;;;;5306656;26;19999;-78
2024/04/18 09:06:07;;;;;;;;;;;8.80;99.90;;;;;;5320084;26;19930;-79
2024/04/18 09:08:33;;;;;;;;;;;8.80;99.90;;;;;;5320810;26;19934;-79
2024/04/18 09:10:59;;;;;;;;;;;8.90;99.90;;;;;;5314866;26;19968;-79
2024/04/18 09:13:25;;;;;;;;;;;9.00;99.90;;;;;;5291475;26;19930;-79
2024/04/18 09:15:50;;;;;;;;;;;8.80;99.90;;;;;;5318452;26;19997;-79
2024/04/18 09:18:16;;;;;;;;;;;8.80;99.90;;;;;;5336550;26;20369;-79
2024/04/18 09:20:43;;;;;;;;;;;8.90;99.90;;;;;;5317797;26;19930;-79
2024/04/18 09:23:09;;;;;;;;;;;9.00;99.90;;;;;;5292542;26;20005;-79
2024/04/18 09:25:34;;;;;;;;;;;9.00;99.90;;;;;;5290771;26;20358;-80
2024/04/18 09:28:00;;;;;;;;;;;9.10;99.90;;;;;;5291223;26;20055;-81
2024/04/18 09:30:26;;;;;;;;;;;9.20;99.90;;;;;;5267372;26;20282;-81
2024/04/18 09:32:52;;;;;;;;;;;9.30;99.90;;;;;;5292380;26;19954;-80
2024/04/18 09:35:18;;;;;;;;;;;9.30;99.90;;;;;;5290462;26;20401;-80
2024/04/18 09:37:44;;;;;;;;;;;9.30;99.90;;;;;;5262413;26;20002;-80
2024/04/18 09:40:11;;;;;;;;;;;9.10;99.90;;;;;;5318737;26;19930;-79
2024/04/18 09:43:09;;;;;;;;;;;9.20;99.90;;;;;;5311296;26;20297;-80
2024/04/18 09:45:38;;;;;;;;;;;9.30;99.90;;;;;;5244819;26;19930;-80
2024/04/18 09:48:04;;;;;;;;;;;9.20;99.90;;;;;;5315808;26;20432;-80
2024/04/18 09:50:29;;;;;;;;;;;9.10;99.90;;;;;;5323007;26;19930;-79
2024/04/18 09:52:55;;;;;;;;;;;9.20;99.90;;;;;;5318654;26;19937;-80
2024/04/18 09:55:21;;;;;;;;;;;9.20;99.90;;;;;;5290277;26;19956;-80
2024/04/18 09:57:47;;;;;;;;;;;9.20;99.90;;;;;;5290461;26;20362;-80
2024/04/18 10:00:13;;;;;;;;;;;9.30;99.90;;;;;;5294154;26;19931;-80
2024/04/18 10:02:39;;;;;;;;;;;9.50;99.90;;;;;;5348368;26;21162;-80
2024/04/18 10:05:04;;;;;;;;;;;9.60;99.90;;;;;;5320545;26;19930;-80
2024/04/18 10:07:30;;;;;;;;;;;9.70;99.90;;;;;;5324355;26;19936;-79
2024/04/18 10:09:56;;;;;;;;;;;9.50;99.90;;;;;;5320479;26;19937;-79
2024/04/18 10:12:28;;;;;;;;;;;9.40;99.90;;;;;;5316060;26;19937;-79
2024/04/18 10:14:54;;;;;;;;;;;9.30;99.90;;;;;;5329731;26;19937;-80
2024/04/18 10:17:21;;;;;;;;;;;9.30;99.90;;;;;;5318249;26;20348;-80
2024/04/18 10:19:46;;;;;;;;;;;9.30;99.90;;;;;;5318234;26;19930;-80
2024/04/18 10:22:12;;;;;;;;;;;9.30;99.90;;;;;;5286657;27;19938;-80
2024/04/18 10:24:38;;;;;;;;;;;9.20;99.90;;;;;;5254848;27;19937;-80
2024/04/18 10:27:07;;;;;;;;;;;9.20;99.90;;;;;;5280055;26;19930;-80
2024/04/18 10:29:33;;;;;;;;;;;9.30;99.90;;;;;;5319234;26;19937;-80
2024/04/18 10:31:58;;;;;;;;;;;9.30;99.90;;;;;;5315271;27;19931;-80
2024/04/18 10:34:26;;;;;;;;;;;9.30;99.90;;;;;;5284508;27;20351;-80
2024/04/18 10:36:52;;;;;;;;;;;9.30;99.90;;;;;;5274911;27;20259;-80
2024/04/18 10:39:31;;;;;;;;;;;9.30;99.90;;;;;;5256383;27;19937;-80
2024/04/18 10:42:05;;;;;;;;;;;9.20;99.90;;;;;;5256907;27;20379;-80
2024/04/18 10:44:33;;;;;;;;;;;9.30;99.90;;;;;;5301730;26;20005;-80
2024/04/18 10:46:58;;;;;;;;;;;9.30;99.90;;;;;;5317419;26;19937;-80
2024/04/18 10:49:24;;;;;;;;;;;9.40;99.90;;;;;;5263438;27;19930;-79
2024/04/18 10:51:50;;;;;;;;;;;9.40;99.90;;;;;;5293837;26;19937;-79
2024/04/18 10:54:17;;;;;;;;;;;9.50;99.90;;;;;;5289314;26;19937;-79
2024/04/18 10:56:43;;;;;;;;;;;9.50;99.90;;;;;;5318288;26;19936;-79
2024/04/18 10:59:09;;;;;;;;;;;9.70;99.90;;;;;;5278867;27;19930;-80
2024/04/18 11:01:38;;;;;;;;;;;9.90;99.90;;;;;;5286410;26;19930;-79
2024/04/18 11:04:04;;;;;;;;;;;10.10;99.90;;;;;;5261296;26;19930;-79
2024/04/18 11:06:30;;;;;;;;;;;10.30;99.90;;;;;;5285172;27;19937;-80
2024/04/18 11:09:01;;;;;;;;;;;10.40;99.90;;;;;;5258427;27;19938;-80
2024/04/18 11:11:31;;;;;;;;;;;10.50;99.90;;;;;;5276344;26;19937;-79
2024/04/18 11:14:03;;;;;;;;;;;10.30;99.90;;;;;;5319299;26;19930;-81
2024/04/18 11:16:29;;;;;;;;;;;10.30;99.90;;;;;;5311715;27;20018;-80
2024/04/18 11:18:55;;;;;;;;;;;10.20;99.90;;;;;;5255323;26;19930;-80
2024/04/18 11:21:24;;;;;;;;;;;10.30;99.90;;;;;;5290133;26;19972;-80
2024/04/18 11:23:51;;;;;;;;;;;10.30;99.90;;;;;;5317718;26;19938;-80
2024/04/18 11:26:18;;;;;;;;;;;10.30;99.90;;;;;;5281435;27;19930;-80
2024/04/18 11:28:46;;;;;;;;;;;10.20;99.90;;;;;;5279507;27;19950;-80
2024/04/18 11:31:18;;;;;;;;;;;10.20;99.90;;;;;;5293566;26;19930;-80
2024/04/18 11:33:47;;;;;;;;;;;10.10;99.90;;;;;;5337433;26;19934;-80
2024/04/18 11:36:13;;;;;;;;;;;10.00;99.90;;;;;;5282994;27;19942;-80
2024/04/18 11:38:39;;;;;;;;;;;9.90;99.90;;;;;;5254580;27;19930;-80
2024/04/18 11:41:08;;;;;;;;;;;8.80;99.90;;;;;;5295847;26;19934;-81
2024/04/18 11:43:37;;;;;;;;;;;9.90;99.90;;;;;;5313117;27;19973;-81
2024/04/18 11:46:03;;;;;;;;;;;9.90;98.90;;;;;;5255877;27;19935;-80
2024/04/18 11:48:32;;;;;;;;;;;10.20;99.90;;;;;;5228378;27;19930;-80
2024/04/18 11:50:58;;;;;;;;;;;10.10;99.90;;;;;;5283031;27;19931;-80
2024/04/18 11:53:24;;;;;;;;;;;10.00;99.90;;;;;;5282746;27;19931;-80
2024/04/18 11:55:52;;;;;;;;;;;10.20;99.90;;;;;;5311242;27;19930;-81
2024/04/18 11:58:18;;;;;;;;;;;10.30;99.90;;;;;;5301774;27;19930;-80
2024/04/18 12:00:44;;;;;;;;;;;10.40;99.90;;;;;;5227016;27;19931;-81
2024/04/18 12:03:10;;;;;;;;;;;10.30;99.90;;;;;;5282775;27;19931;-81
2024/04/18 12:05:39;;;;;;;;;;;10.30;99.90;;;;;;5255858;27;19930;-81
2024/04/18 12:08:05;;;;;;;;;;;10.40;99.90;;;;;;5273381;26;19930;-81
2024/04/18 12:10:31;;;;;;;;;;;10.40;99.90;;;;;;5346408;26;20523;-81
2024/04/18 12:12:57;;;;;;;;;;;10.50;99.90;;;;;;5315592;26;19930;-81
2024/04/18 12:15:22;;;;;;;;;;;10.60;98.90;;;;;;5301329;27;19937;-81
2024/04/18 12:17:51;;;;;;;;;;;10.60;99.30;;;;;;5283893;27;20063;-80
2024/04/18 12:20:18;;;;;;;;;;;10.70;98.30;;;;;;5257667;26;20067;-81
2024/04/18 12:22:44;;;;;;;;;;;10.70;98.00;;;;;;5284243;27;20374;-81
2024/04/18 12:25:13;;;;;;;;;;;10.50;97.80;;;;;;5283322;27;20251;-81
2024/04/18 12:27:38;;;;;;;;;;;10.60;98.70;;;;;;5262212;27;19942;-81
2024/04/18 12:30:07;;;;;;;;;;;10.60;98.20;;;;;;5283436;27;19931;-81
2024/04/18 12:32:42;;;;;;;;;;;10.60;98.10;;;;;;5255759;27;19963;-81
2024/04/18 12:35:10;;;;;;;;;;;10.50;98.10;;;;;;5257988;27;19930;-81
2024/04/18 12:37:35;;;;;;;;;;;10.60;97.90;;;;;;5284883;26;19945;-81
2024/04/18 12:40:05;;;;;;;;;;;10.60;98.60;;;;;;5264023;26;19930;-81
2024/04/18 12:42:30;;;;;;;;;;;10.70;98.60;;;;;;5282518;27;19937;-79
2024/04/18 12:44:56;;;;;;;;;;;10.70;98.40;;;;;;5265168;27;19930;-79
2024/04/18 12:47:22;;;;;;;;;;;10.80;99.10;;;;;;5253634;27;19930;-79
2024/04/18 12:49:48;;;;;;;;;;;10.80;98.20;;;;;;5256946;27;19958;-79
2024/04/18 12:52:14;;;;;;;;;;;10.90;98.10;;;;;;5284617;27;19934;-79
2024/04/18 12:54:40;;;;;;;;;;;10.90;97.90;;;;;;5305239;26;20644;-79
2024/04/18 12:57:05;;;;;;;;;;;11.10;95.80;;;;;;5319554;26;20342;-78
2024/04/18 12:59:34;;;;;;;;;;;11.10;95.60;;;;;;5347630;26;19992;-80
2024/04/18 13:02:00;;;;;;;;;;;11.10;94.90;;;;;;5313858;27;19942;-79
2024/04/18 13:04:25;;;;;;;;;;;11.10;94.90;;;;;;5282836;26;19930;-80
2024/04/18 13:06:51;;;;;;;;;;;11.10;95.40;;;;;;5347908;26;20354;-80
2024/04/18 13:09:17;;;;;;;;;;;11.10;95.10;;;;;;5347846;26;19966;-80
2024/04/18 13:11:44;;;;;;;;;;;11.10;95.80;;;;;;5318325;26;19976;-79
2024/04/18 13:14:21;;;;;;;;;;;11.20;95.70;;;;;;5328641;26;19937;-79
2024/04/18 13:17:10;;;;;;;;;;;11.00;95.00;;;;;;5222213;26;19940;-80
2024/04/18 13:19:36;;;;;;;;;;;11.40;95.10;;;;;;5347719;26;20006;-80
2024/04/18 13:22:32;;;;;;;;;;;;;;;;;;;;;
2024/04/18 13:24:58;;;;;;;;;;;12.10;93.60;;;;;;5290237;26;19930;-79
2024/04/18 13:27:27;;;;;;;;;;;12.00;92.50;;;;;;5318609;26;20250;-79
2024/04/18 13:29:55;;;;;;;;;;;12.00;93.00;;;;;;5290633;26;19930;-79
2024/04/18 13:32:21;;;;;;;;;;;11.80;92.80;;;;;;5284359;27;20003;-79
2024/04/18 13:34:47;;;;;;;;;;;11.90;94.20;;;;;;5256178;27;19930;-79
2024/04/18 13:37:15;;;;;;;;;;;12.30;93.10;;;;;;5284910;27;20362;-79
2024/04/18 13:39:44;;;;;;;;;;;12.30;92.30;;;;;;5285083;27;19930;-80
2024/04/18 13:42:12;;;;;;;;;;;12.30;91.20;;;;;;5304286;27;19930;-79
2024/04/18 13:44:45;;;;;;;;;;;12.30;91.70;;;;;;5284291;26;19937;-79
2024/04/18 13:47:14;;;;;;;;;;;12.10;90.90;;;;;;5256412;27;19942;-80
2024/04/18 13:49:42;;;;;;;;;;;12.00;91.90;;;;;;5259466;26;19935;-80
2024/04/18 13:52:08;;;;;;;;;;;12.20;91.40;;;;;;5290925;26;19938;-80
2024/04/18 13:54:34;;;;;;;;;;;12.20;92.40;;;;;;5283916;27;19931;-80
2024/04/18 13:57:00;;;;;;;;;;;12.40;93.00;;;;;;5258921;27;19931;-80
2024/04/18 13:59:26;;;;;;;;;;;12.40;91.70;;;;;;5283318;27;19934;-80
2024/04/18 14:01:52;;;;;;;;;;;12.10;91.70;;;;;;5255842;27;20342;-80
2024/04/18 14:04:17;;;;;;;;;;;12.00;92.40;;;;;;5305942;26;20495;-80
2024/04/18 14:06:43;;;;;;;;;;;12.20;92.90;;;;;;5347745;26;20353;-80
2024/04/18 14:09:09;;;;;;;;;;;12.40;93.10;;;;;;5318477;26;19954;-79
2024/04/18 14:11:42;;;;;;;;;;;12.70;92.60;;;;;;5329701;26;19930;-79
2024/04/18 14:14:08;;;;;;;;;;;13.00;92.60;;;;;;5318121;26;19936;-79
2024/04/18 14:19:21;;;;;;;;;;;13.10;93.40;;;;;;5294073;26;19938;-78
2024/04/18 14:21:49;;;;;;;;;;;13.20;93.00;;;;;;5287488;26;20004;-80
2024/04/18 14:24:15;;;;;;;;;;;13.10;93.50;;;;;;5284286;27;19958;-80
2024/04/18 14:26:41;;;;;;;;;;;12.80;94.10;;;;;;5262240;27;20250;-81
2024/04/18 14:29:06;;;;;;;;;;;12.40;94.00;;;;;;5288559;26;20357;-81
2024/04/18 14:31:32;;;;;;;;;;;12.20;94.40;;;;;;5347156;26;19942;-81